Time;durP1;ratioP1;P1;durP2;ratioP2;P2;SDS_P1;SDS_P2;PMS_P1;PMS_P2;Temp;Humidity;BMP_temperature;BMP_pressure;BME280_temperature;BME280_humidity;BME280_pressure;Samples;Min_cycle;Max_cycle;Signal;HPM_P1;HPM_P2
2021/12/23 00:01:41;;;;;;;48.07;27.70;;;-0.60;99.90;;;;;;4975529;28;20592;-62
2021/12/23 00:04:09;;;;;;;45.73;28.13;;;-0.70;99.90;;;;;;4975448;28;20401;-62
2021/12/23 00:06:35;;;;;;;50.43;26.97;;;-0.70;99.90;;;;;;4974468;28;20414;-62
2021/12/23 00:09:03;;;;;;;46.23;27.47;;;-0.80;99.90;;;;;;4975336;28;20442;-62
2021/12/23 00:11:29;;;;;;;48.30;30.67;;;-0.80;99.90;;;;;;4975387;28;20437;-62
2021/12/23 00:14:03;;;;;;;45.53;28.10;;;-0.80;99.90;;;;;;4975121;28;20790;-62
2021/12/23 00:16:42;;;;;;;48.20;28.47;;;-0.80;99.90;;;;;;4975588;28;20445;-62
2021/12/23 00:24:39;;;;;;;43.53;28.17;;;-0.70;99.90;;;;;;4975480;28;20386;-62
2021/12/23 00:27:06;;;;;;;41.07;26.70;;;-0.60;99.90;;;;;;4974725;28;20435;-62
2021/12/23 00:29:31;;;;;;;43.23;26.87;;;-0.60;99.90;;;;;;4974760;28;20428;-62
2021/12/23 00:31:57;;;;;;;45.93;28.97;;;-0.70;99.90;;;;;;4975009;28;20880;-62
2021/12/23 00:34:23;;;;;;;43.97;26.20;;;-0.80;99.90;;;;;;4975060;28;20229;-62
2021/12/23 00:36:51;;;;;;;45.50;26.87;;;-0.80;99.90;;;;;;4974727;28;20417;-62
2021/12/23 00:39:17;;;;;;;44.03;27.20;;;-0.80;99.90;;;;;;4975069;28;20202;-62
2021/12/23 00:41:44;;;;;;;42.63;26.43;;;-0.80;99.90;;;;;;4980068;28;20447;-62
2021/12/23 00:44:11;;;;;;;40.50;27.53;;;-0.80;99.90;;;;;;4994338;28;20411;-62
2021/12/23 00:46:36;;;;;;;40.73;26.03;;;-0.90;99.90;;;;;;4994167;28;20934;-62
2021/12/23 00:49:02;;;;;;;42.43;25.70;;;-0.90;99.90;;;;;;4993192;28;20405;-62
2021/12/23 00:51:29;;;;;;;42.37;26.30;;;-0.90;99.90;;;;;;4994113;28;20181;-62
2021/12/23 00:54:04;;;;;;;46.67;27.27;;;-0.80;99.90;;;;;;4992722;28;20179;-62
2021/12/23 00:56:30;;;;;;;42.50;24.83;;;-0.80;99.90;;;;;;4994043;28;20401;-62
2021/12/23 00:58:56;;;;;;;40.07;26.50;;;-0.70;99.90;;;;;;4994266;28;20841;-62
2021/12/23 01:01:21;;;;;;;40.63;25.77;;;-0.70;99.90;;;;;;4994179;28;20551;-62
2021/12/23 01:03:47;;;;;;;45.10;26.53;;;-0.70;99.90;;;;;;4994221;28;20660;-62
2021/12/23 01:06:13;;;;;;;36.83;24.70;;;-0.70;99.90;;;;;;4993843;28;20177;-62
2021/12/23 01:08:38;;;;;;;37.70;24.17;;;-0.60;99.90;;;;;;4993939;28;20636;-62
2021/12/23 01:11:04;;;;;;;41.43;25.10;;;-0.60;99.90;;;;;;4994061;28;20531;-62
2021/12/23 01:13:30;;;;;;;42.60;26.70;;;-0.60;99.90;;;;;;4993942;28;20227;-62
2021/12/23 01:16:06;;;;;;;44.10;27.27;;;-0.50;99.90;;;;;;4994111;28;20951;-63
2021/12/23 01:18:37;;;;;;;40.43;25.57;;;-0.50;99.90;;;;;;4995118;28;20594;-62
2021/12/23 01:21:15;;;;;;;43.00;27.83;;;-0.60;99.90;;;;;;4998209;28;20490;-61
2021/12/23 01:23:43;;;;;;;41.93;26.57;;;-0.60;99.90;;;;;;4997706;28;20396;-62
2021/12/23 01:26:09;;;;;;;41.53;25.07;;;-0.50;99.90;;;;;;4997914;28;20416;-62
2021/12/23 01:28:35;;;;;;;40.90;26.93;;;-0.50;99.90;;;;;;4998257;28;20436;-62
2021/12/23 01:31:00;;;;;;;41.73;26.50;;;-0.40;99.90;;;;;;4998142;28;20413;-62
2021/12/23 01:33:26;;;;;;;43.93;27.67;;;-0.30;99.90;;;;;;4997623;28;20173;-63
2021/12/23 01:35:52;;;;;;;44.27;28.23;;;-0.50;99.90;;;;;;4997774;28;20628;-62
2021/12/23 01:38:18;;;;;;;45.40;28.07;;;-0.40;99.90;;;;;;4997328;28;20199;-62
2021/12/23 01:40:46;;;;;;;41.37;24.93;;;-0.30;99.90;;;;;;4997347;28;20683;-62
2021/12/23 01:43:13;;;;;;;44.17;27.77;;;-0.20;99.90;;;;;;4997812;28;20410;-62
2021/12/23 01:45:44;;;;;;;40.33;25.97;;;-0.20;99.90;;;;;;4997558;28;20417;-62
2021/12/23 01:48:10;;;;;;;39.30;25.17;;;-0.20;99.90;;;;;;4997495;28;20513;-62
2021/12/23 01:50:37;;;;;;;46.47;26.93;;;-0.30;99.90;;;;;;4997262;28;20938;-62
2021/12/23 01:53:03;;;;;;;43.57;28.20;;;-0.40;99.90;;;;;;4997071;28;20179;-62
2021/12/23 01:55:29;;;;;;;37.83;24.00;;;-0.30;99.90;;;;;;4997030;28;20468;-62
2021/12/23 01:57:56;;;;;;;39.60;26.63;;;-0.30;99.90;;;;;;4991931;28;20456;-62
2021/12/23 02:00:26;;;;;;;41.53;26.97;;;-0.30;99.90;;;;;;4981832;28;20466;-62
2021/12/23 02:02:54;;;;;;;41.70;27.20;;;-0.40;99.90;;;;;;4977727;28;20386;-62
2021/12/23 02:05:21;;;;;;;44.33;29.37;;;-0.50;99.90;;;;;;4977763;28;20407;-62
2021/12/23 02:07:46;;;;;;;39.37;24.60;;;-0.60;99.90;;;;;;4977780;28;20536;-62
2021/12/23 02:10:12;;;;;;;41.80;27.40;;;-0.50;99.90;;;;;;4977855;28;20444;-62
2021/12/23 02:12:42;;;;;;;39.60;27.30;;;-0.40;99.90;;;;;;4977550;28;20169;-62
2021/12/23 02:15:08;;;;;;;40.50;26.77;;;-0.40;99.90;;;;;;4977601;28;20166;-62
2021/12/23 02:17:35;;;;;;;40.03;25.40;;;-0.50;99.90;;;;;;4977096;28;20536;-60
2021/12/23 02:20:01;;;;;;;43.07;27.80;;;-0.80;99.90;;;;;;4977629;28;20537;-62
2021/12/23 02:22:27;;;;;;;40.70;25.80;;;-0.70;99.90;;;;;;4977148;28;20498;-62
2021/12/23 02:24:52;;;;;;;35.50;23.77;;;-0.60;99.90;;;;;;4977101;28;20170;-62
2021/12/23 02:27:18;;;;;;;40.13;26.67;;;-0.60;99.90;;;;;;4976983;28;20248;-62
2021/12/23 02:29:44;;;;;;;40.10;25.90;;;-0.60;99.90;;;;;;4976336;28;20181;-62
2021/12/23 02:32:09;;;;;;;40.50;25.53;;;-0.50;99.90;;;;;;4977011;28;20183;-62
2021/12/23 02:34:35;;;;;;;45.20;30.93;;;-0.50;99.90;;;;;;4975784;28;20294;-62
2021/12/23 02:37:01;;;;;;;41.87;28.47;;;-0.40;99.90;;;;;;4977057;28;20756;-62
2021/12/23 02:39:28;;;;;;;40.40;24.73;;;-0.30;99.90;;;;;;4976810;28;20500;-62
2021/12/23 02:41:54;;;;;;;41.70;26.20;;;-0.50;99.90;;;;;;4977060;28;20538;-62
2021/12/23 02:44:19;;;;;;;37.47;24.57;;;-0.60;99.90;;;;;;4976742;28;20405;-62
2021/12/23 02:46:46;;;;;;;37.83;24.47;;;-0.50;99.90;;;;;;4979933;28;20248;-62
2021/12/23 02:49:12;;;;;;;35.77;23.00;;;-0.50;99.90;;;;;;4996184;28;20514;-62
2021/12/23 02:51:39;;;;;;;45.13;28.93;;;-0.40;99.90;;;;;;4996126;28;20397;-62
2021/12/23 02:54:05;;;;;;;39.90;26.10;;;-0.50;99.90;;;;;;4996402;28;20414;-63
2021/12/23 02:56:31;;;;;;;44.17;27.30;;;-0.50;99.90;;;;;;4995897;28;20419;-62
2021/12/23 02:58:56;;;;;;;34.63;23.47;;;-0.50;99.90;;;;;;4995962;28;20266;-62
2021/12/23 03:01:23;;;;;;;39.10;24.90;;;-0.50;99.90;;;;;;4995836;28;20540;-62
2021/12/23 03:03:49;;;;;;;38.90;26.43;;;-0.30;99.90;;;;;;4996036;28;20172;-62
2021/12/23 03:06:18;;;;;;;42.33;26.20;;;-0.20;99.90;;;;;;4995939;28;20901;-62
2021/12/23 03:08:47;;;;;;;40.43;25.83;;;-0.20;99.90;;;;;;4996722;28;20432;-62
2021/12/23 03:11:17;;;;;;;37.00;24.03;;;-0.20;99.90;;;;;;4996181;28;20492;-61
2021/12/23 03:13:43;;;;;;;39.17;26.87;;;-0.20;99.90;;;;;;4995974;28;20407;-62
2021/12/23 03:16:11;;;;;;;35.23;23.10;;;-0.30;99.90;;;;;;4995593;28;20415;-62
2021/12/23 03:18:36;;;;;;;33.20;23.17;;;-0.50;99.90;;;;;;4994572;28;20468;-62
2021/12/23 03:21:03;;;;;;;39.17;26.00;;;-0.50;99.90;;;;;;4995577;28;20456;-62
2021/12/23 03:23:29;;;;;;;35.77;24.50;;;-0.60;99.90;;;;;;4995488;28;20264;-62
2021/12/23 03:25:54;;;;;;;33.60;21.10;;;-0.50;99.90;;;;;;4996140;28;20794;-62
2021/12/23 03:28:20;;;;;;;36.63;23.80;;;-0.40;99.90;;;;;;4995276;28;20440;-62
2021/12/23 03:30:47;;;;;;;37.53;24.43;;;-0.50;99.90;;;;;;4995731;28;20178;-62
2021/12/23 03:33:12;;;;;;;35.17;23.30;;;-0.70;99.90;;;;;;4995269;28;20181;-62
2021/12/23 03:35:39;;;;;;;35.60;22.87;;;-0.70;99.90;;;;;;4994074;28;20404;-62
2021/12/23 03:38:05;;;;;;;35.20;24.27;;;-0.70;99.90;;;;;;4995252;28;20192;-62
2021/12/23 03:40:31;;;;;;;36.87;25.30;;;-0.60;99.90;;;;;;4995305;28;20539;-62
2021/12/23 03:42:57;;;;;;;40.77;25.40;;;-0.50;99.90;;;;;;4995102;28;20498;-62
2021/12/23 03:45:22;;;;;;;33.17;23.47;;;-0.50;99.90;;;;;;4995792;28;20413;-62
2021/12/23 03:47:50;;;;;;;31.70;21.03;;;-0.60;99.90;;;;;;4995134;28;20660;-63
2021/12/23 03:50:21;;;;;;;36.00;24.20;;;-0.60;99.90;;;;;;4993892;28;20228;-62
2021/12/23 03:52:47;;;;;;;39.93;24.57;;;-0.60;99.90;;;;;;4995352;28;20398;-62
2021/12/23 03:55:15;;;;;;;36.43;23.17;;;-0.90;99.90;;;;;;4994955;28;20405;-62
2021/12/23 03:57:40;;;;;;;41.30;26.77;;;-0.70;99.90;;;;;;4993977;28;20800;-62
2021/12/23 04:00:12;;;;;;;37.50;27.17;;;-0.70;99.90;;;;;;4995121;28;20447;-62
2021/12/23 04:02:38;;;;;;;35.13;23.73;;;-0.80;99.90;;;;;;4995307;28;20271;-62
2021/12/23 04:05:06;;;;;;;34.10;22.33;;;-0.60;99.90;;;;;;4995038;28;20890;-62
2021/12/23 04:07:35;;;;;;;37.93;25.03;;;-0.60;99.90;;;;;;4994811;28;21012;-62
2021/12/23 04:10:02;;;;;;;38.87;25.43;;;-0.70;99.90;;;;;;4994589;28;20422;-62
2021/12/23 04:12:27;;;;;;;37.60;24.93;;;-0.70;99.90;;;;;;4994868;28;20413;-62
2021/12/23 04:14:53;;;;;;;36.53;23.20;;;-0.70;99.90;;;;;;4994584;28;20467;-62
2021/12/23 04:17:18;;;;;;;33.13;23.93;;;-0.70;99.90;;;;;;5024497;23;20203;-60
2021/12/23 04:19:46;;;;;;;34.27;24.50;;;-0.60;99.90;;;;;;5053357;28;20250;-62
2021/12/23 04:22:12;;;;;;;34.50;22.80;;;-0.40;99.90;;;;;;5053270;28;20165;-62
2021/12/23 04:24:38;;;;;;;38.57;25.13;;;-0.20;99.90;;;;;;5053624;28;20977;-62
2021/12/23 04:27:05;;;;;;;34.70;23.80;;;-0.10;99.90;;;;;;5052349;28;20528;-62
2021/12/23 04:29:30;;;;;;;37.70;25.63;;;0.00;99.90;;;;;;5033530;28;20414;-61
2021/12/23 04:31:56;;;;;;;33.27;22.33;;;0.10;99.90;;;;;;5033476;28;20405;-61
2021/12/23 04:34:22;;;;;;;35.97;24.40;;;0.10;99.90;;;;;;5033493;28;20404;-62
2021/12/23 04:36:47;;;;;;;35.13;23.80;;;0.00;99.90;;;;;;5033775;28;20263;-62
2021/12/23 04:39:13;;;;;;;38.57;25.40;;;0.00;99.90;;;;;;5033573;28;20749;-62
2021/12/23 04:41:39;;;;;;;34.00;23.37;;;0.00;99.90;;;;;;5033251;28;20194;-62
2021/12/23 04:44:05;;;;;;;31.00;22.40;;;0.10;99.90;;;;;;5033663;28;20809;-61
2021/12/23 04:46:31;;;;;;;27.90;20.53;;;0.00;99.90;;;;;;5033077;28;20172;-61
2021/12/23 04:48:57;;;;;;;32.50;21.93;;;0.00;99.90;;;;;;5033086;28;20432;-62
2021/12/23 04:51:22;;;;;;;30.03;20.30;;;-0.10;99.90;;;;;;5030835;28;20522;-61
2021/12/23 04:53:48;;;;;;;29.60;19.50;;;-0.10;99.90;;;;;;5033029;28;20546;-61
2021/12/23 04:56:15;;;;;;;32.67;21.17;;;-0.10;99.90;;;;;;5032579;28;20172;-61
2021/12/23 04:58:41;;;;;;;33.10;20.27;;;0.10;99.90;;;;;;5033238;28;20186;-62
2021/12/23 05:01:10;;;;;;;31.00;20.30;;;0.20;99.90;;;;;;5033186;28;20833;-60
2021/12/23 05:03:36;;;;;;;32.33;21.20;;;0.30;99.90;;;;;;5031801;28;20419;-61
2021/12/23 05:06:02;;;;;;;33.23;22.70;;;0.30;99.90;;;;;;5033327;28;20400;-60
2021/12/23 05:08:27;;;;;;;30.50;21.87;;;0.40;99.90;;;;;;5032954;28;20195;-60
2021/12/23 05:10:53;;;;;;;31.87;20.40;;;0.50;99.90;;;;;;5032895;28;20413;-61
2021/12/23 05:13:19;;;;;;;29.13;20.00;;;0.40;99.90;;;;;;5033282;28;20173;-62
2021/12/23 05:15:44;;;;;;;27.83;19.60;;;0.40;99.90;;;;;;5032991;28;20167;-62
2021/12/23 05:18:10;;;;;;;31.03;19.13;;;0.50;99.90;;;;;;5032821;28;20691;-61
2021/12/23 05:20:36;;;;;;;29.70;20.83;;;0.30;99.90;;;;;;5032790;28;20584;-62
2021/12/23 05:23:02;;;;;;;30.10;20.33;;;0.10;99.90;;;;;;5033136;28;20169;-62
2021/12/23 05:25:27;;;;;;;28.80;19.93;;;0.20;99.90;;;;;;5033216;28;20740;-60
2021/12/23 05:27:54;;;;;;;32.70;20.80;;;0.10;99.90;;;;;;5033236;28;20431;-61
2021/12/23 05:30:21;;;;;;;30.77;20.83;;;0.10;99.90;;;;;;5031897;28;20178;-61
2021/12/23 05:32:47;;;;;;;30.00;20.17;;;0.20;99.90;;;;;;5033995;28;20745;-62
2021/12/23 05:35:16;;;;;;;29.10;19.43;;;0.30;99.90;;;;;;5035219;28;20449;-61
2021/12/23 05:37:42;;;;;;;30.83;21.10;;;0.40;99.90;;;;;;5035534;28;20505;-60
2021/12/23 05:40:10;;;;;;;29.33;19.27;;;0.30;99.90;;;;;;5036630;28;20448;-62
2021/12/23 05:42:36;;;;;;;30.60;20.30;;;0.30;99.90;;;;;;5037453;28;20429;-61
2021/12/23 05:45:03;;;;;;;30.50;19.83;;;-0.10;99.90;;;;;;5042530;28;20408;-61
2021/12/23 05:47:28;;;;;;;28.80;20.20;;;-0.20;99.90;;;;;;5044871;28;20419;-60
2021/12/23 05:49:54;;;;;;;27.63;19.33;;;-0.20;99.90;;;;;;5045007;28;20478;-60
2021/12/23 05:52:20;;;;;;;29.43;20.20;;;-0.10;99.90;;;;;;5035205;28;20176;-62
2021/12/23 05:54:45;;;;;;;30.50;20.13;;;-0.20;99.90;;;;;;5033327;28;20291;-61
2021/12/23 05:57:11;;;;;;;31.80;21.10;;;0.00;99.90;;;;;;5032841;28;20213;-60
2021/12/23 05:59:37;;;;;;;29.67;19.60;;;0.00;99.90;;;;;;5032621;28;20514;-61
2021/12/23 06:02:05;;;;;;;30.70;20.63;;;0.10;99.90;;;;;;5032957;28;20234;-61
2021/12/23 06:04:31;;;;;;;30.87;19.23;;;0.10;99.90;;;;;;5032870;28;20430;-61
2021/12/23 06:06:57;;;;;;;33.13;20.70;;;0.00;99.90;;;;;;5036687;28;20402;-61
2021/12/23 06:09:22;;;;;;;30.40;19.03;;;-0.10;99.90;;;;;;5036523;28;20494;-62
2021/12/23 06:11:48;;;;;;;28.23;18.60;;;0.00;99.90;;;;;;5036336;28;20200;-61
2021/12/23 06:14:14;;;;;;;29.60;20.07;;;0.10;99.90;;;;;;5036043;28;20170;-61
2021/12/23 06:16:40;;;;;;;30.70;20.43;;;0.20;99.90;;;;;;5036034;28;20175;-62
2021/12/23 06:19:05;;;;;;;33.13;22.17;;;0.20;99.90;;;;;;5035852;28;20540;-61
2021/12/23 06:21:32;;;;;;;32.90;21.90;;;0.30;99.90;;;;;;5035925;28;20239;-61
2021/12/23 06:23:58;;;;;;;32.60;22.80;;;0.30;99.90;;;;;;5036022;28;20539;-61
2021/12/23 06:26:24;;;;;;;30.50;19.37;;;0.20;99.90;;;;;;5035900;28;20405;-62
2021/12/23 06:28:50;;;;;;;28.10;19.93;;;0.20;99.90;;;;;;5035751;28;20435;-62
2021/12/23 06:31:15;;;;;;;34.50;22.00;;;0.30;99.90;;;;;;5035880;28;20182;-62
2021/12/23 06:33:41;;;;;;;31.13;20.03;;;0.20;99.90;;;;;;5035883;28;20175;-61
2021/12/23 06:36:07;;;;;;;31.60;21.83;;;0.20;99.90;;;;;;5035949;28;20223;-62
2021/12/23 06:38:35;;;;;;;31.90;21.40;;;0.20;99.90;;;;;;5035546;28;20188;-61
2021/12/23 06:41:01;;;;;;;31.40;21.30;;;0.10;99.90;;;;;;5035843;28;20452;-62
2021/12/23 06:43:26;;;;;;;31.80;20.70;;;0.10;99.90;;;;;;5034269;28;20415;-61
2021/12/23 06:45:52;;;;;;;28.77;19.17;;;0.20;99.90;;;;;;5035460;28;20419;-61
2021/12/23 06:48:17;;;;;;;31.20;22.40;;;0.20;99.90;;;;;;5035466;28;20192;-62
2021/12/23 06:50:45;;;;;;;28.53;19.57;;;0.10;99.90;;;;;;5036068;28;20169;-61
2021/12/23 06:53:13;;;;;;;29.13;20.67;;;0.00;99.90;;;;;;5035698;28;20166;-61
2021/12/23 06:55:40;;;;;;;27.30;18.73;;;0.10;99.90;;;;;;5035361;28;20445;-61
2021/12/23 06:58:06;;;;;;;30.80;20.87;;;0.10;99.90;;;;;;5035463;28;20434;-61
2021/12/23 07:00:31;;;;;;;30.77;21.57;;;0.20;99.90;;;;;;5035469;28;20551;-62
2021/12/23 07:02:57;;;;;;;29.73;20.17;;;0.30;99.90;;;;;;5034820;28;20182;-61
2021/12/23 07:05:23;;;;;;;32.10;22.53;;;0.30;99.90;;;;;;5035294;28;20161;-61
2021/12/23 07:07:57;;;;;;;31.73;20.93;;;0.30;99.90;;;;;;5035393;28;20235;-61
2021/12/23 07:10:29;;;;;;;33.83;22.30;;;0.30;99.90;;;;;;5035214;28;20519;-59
2021/12/23 07:12:56;;;;;;;31.13;21.77;;;0.20;99.90;;;;;;5035596;28;20416;-61
2021/12/23 07:15:24;;;;;;;33.30;21.50;;;0.20;99.90;;;;;;5035178;28;20408;-61
2021/12/23 07:17:50;;;;;;;32.33;21.73;;;0.20;99.90;;;;;;5034490;28;20833;-61
2021/12/23 07:20:16;;;;;;;32.83;20.47;;;0.30;99.90;;;;;;5035115;28;20463;-60
2021/12/23 07:22:42;;;;;;;33.23;21.03;;;0.30;99.90;;;;;;5034905;28;20404;-61
2021/12/23 07:25:08;;;;;;;35.40;24.77;;;0.30;99.90;;;;;;5033588;28;20640;-60
2021/12/23 07:27:34;;;;;;;31.57;22.00;;;0.30;99.90;;;;;;5035095;28;20190;-62
2021/12/23 07:29:59;;;;;;;32.03;21.60;;;0.40;99.90;;;;;;5035187;28;20460;-62
2021/12/23 07:32:25;;;;;;;33.40;22.80;;;0.40;99.90;;;;;;5034981;28;20288;-61
2021/12/23 07:34:51;;;;;;;31.53;21.20;;;0.50;99.90;;;;;;5035016;28;20686;-62
2021/12/23 07:37:17;;;;;;;33.00;22.40;;;0.40;99.90;;;;;;5034673;28;20174;-62
2021/12/23 07:39:42;;;;;;;28.90;21.20;;;0.30;99.90;;;;;;5039741;28;20185;-62
2021/12/23 07:42:14;;;;;;;38.17;21.80;;;0.30;99.90;;;;;;5033897;28;20405;-62
2021/12/23 07:44:40;;;;;;;33.30;21.27;;;0.40;99.90;;;;;;5034335;28;20173;-62
2021/12/23 07:47:05;;;;;;;32.60;20.70;;;0.50;99.90;;;;;;5033424;28;20419;-60
2021/12/23 07:49:31;;;;;;;34.10;22.30;;;0.50;99.90;;;;;;5033818;28;20745;-61
2021/12/23 07:51:57;;;;;;;28.37;20.07;;;0.50;99.90;;;;;;5039493;28;20174;-62
2021/12/23 07:54:22;;;;;;;35.10;22.00;;;0.70;99.90;;;;;;5038751;28;20186;-61
2021/12/23 07:56:48;;;;;;;29.80;20.83;;;0.60;99.90;;;;;;5037405;28;20211;-59
2021/12/23 07:59:14;;;;;;;32.80;24.13;;;0.60;99.90;;;;;;5037287;28;20193;-61
2021/12/23 08:01:40;;;;;;;36.17;23.87;;;0.50;99.90;;;;;;5040067;28;20692;-61
2021/12/23 08:04:06;;;;;;;33.13;23.00;;;0.50;99.90;;;;;;5034778;28;20625;-60
2021/12/23 08:06:31;;;;;;;28.50;19.90;;;0.50;99.90;;;;;;5034555;28;20415;-60
2021/12/23 08:08:57;;;;;;;29.60;19.43;;;0.50;99.90;;;;;;5034311;28;20187;-60
2021/12/23 08:11:26;;;;;;;26.40;18.17;;;0.50;99.90;;;;;;5034419;28;20183;-60
2021/12/23 08:13:51;;;;;;;32.40;20.30;;;0.60;99.90;;;;;;5034277;28;20171;-60
2021/12/23 08:16:17;;;;;;;30.67;20.77;;;0.80;99.90;;;;;;5034128;28;20768;-59
2021/12/23 08:18:42;;;;;;;28.67;19.57;;;0.80;99.90;;;;;;5034141;28;20255;-60
2021/12/23 08:21:08;;;;;;;31.97;20.90;;;1.00;99.90;;;;;;5034213;28;20205;-60
2021/12/23 08:23:34;;;;;;;32.50;19.63;;;1.10;99.90;;;;;;5034073;28;20177;-60
2021/12/23 08:26:03;;;;;;;30.07;20.97;;;1.30;99.90;;;;;;5039650;28;20255;-59
2021/12/23 08:28:30;;;;;;;31.53;21.40;;;1.30;99.90;;;;;;5040081;28;20563;-61
2021/12/23 08:30:55;;;;;;;29.10;19.57;;;1.30;99.90;;;;;;5041669;28;20773;-61
2021/12/23 08:33:21;;;;;;;31.67;21.63;;;1.10;99.90;;;;;;5041738;28;20402;-61
2021/12/23 08:35:46;;;;;;;31.73;21.73;;;1.20;99.90;;;;;;5039352;28;20162;-60
2021/12/23 08:38:12;;;;;;;30.67;19.10;;;1.40;99.90;;;;;;5039638;28;20274;-61
2021/12/23 08:40:38;;;;;;;28.00;19.20;;;1.60;99.90;;;;;;5046806;28;20256;-59
2021/12/23 08:43:03;;;;;;;32.77;21.07;;;1.80;99.90;;;;;;5036924;28;20177;-62
2021/12/23 08:45:31;;;;;;;30.60;19.87;;;1.70;99.90;;;;;;5033483;28;20173;-61
2021/12/23 08:47:58;;;;;;;28.33;20.70;;;1.80;99.90;;;;;;5033183;28;20206;-61
2021/12/23 08:50:26;;;;;;;29.93;19.40;;;2.00;99.90;;;;;;5033158;28;20417;-61
2021/12/23 08:52:52;;;;;;;32.40;22.53;;;2.20;99.90;;;;;;5033260;28;20405;-60
2021/12/23 08:55:18;;;;;;;32.47;22.20;;;2.30;99.90;;;;;;5033434;28;20910;-62
2021/12/23 08:57:44;;;;;;;30.07;21.80;;;2.30;99.90;;;;;;5033439;28;20434;-61
2021/12/23 09:00:14;;;;;;;26.60;20.27;;;2.40;99.90;;;;;;5032911;28;20453;-61
2021/12/23 09:02:40;;;;;;;30.93;20.67;;;2.70;99.90;;;;;;5033473;28;20402;-61
2021/12/23 09:05:07;;;;;;;28.00;19.50;;;2.60;99.90;;;;;;5033821;28;20402;-61
2021/12/23 09:07:32;;;;;;;32.93;21.03;;;2.60;99.90;;;;;;5033098;28;20194;-61
2021/12/23 09:09:58;;;;;;;26.40;18.73;;;2.60;99.90;;;;;;5033377;28;20402;-62
2021/12/23 09:12:24;;;;;;;24.10;16.63;;;2.80;99.90;;;;;;5033432;28;20189;-62
2021/12/23 09:14:50;;;;;;;24.67;17.67;;;3.10;99.90;;;;;;5033622;28;20207;-61
2021/12/23 09:17:16;;;;;;;26.93;18.00;;;3.20;99.90;;;;;;5033316;28;20192;-62
2021/12/23 09:19:42;;;;;;;32.13;20.90;;;3.30;99.90;;;;;;5033192;28;20506;-62
2021/12/23 09:22:09;;;;;;;26.10;18.83;;;3.00;99.90;;;;;;5033290;28;20456;-62
2021/12/23 09:24:37;;;;;;;32.40;21.13;;;3.00;99.90;;;;;;5033501;28;20857;-62
2021/12/23 09:27:33;;;;;;;25.60;19.10;;;3.00;99.90;;;;;;5032922;28;20414;-58
2021/12/23 09:35:01;;;;;;;30.03;20.30;;;3.40;99.90;;;;;;5033320;28;20162;-62
2021/12/23 09:37:28;;;;;;;30.77;20.10;;;3.30;99.90;;;;;;5033058;28;20428;-62
2021/12/23 09:39:57;;;;;;;30.60;20.10;;;3.40;99.90;;;;;;5035871;28;20898;-62
2021/12/23 09:42:33;;;;;;;25.67;17.07;;;3.50;99.90;;;;;;5039527;28;20775;-61
2021/12/23 09:45:05;;;;;;;25.60;19.30;;;3.80;99.90;;;;;;5036898;28;20412;-61
2021/12/23 09:47:33;;;;;;;26.10;18.43;;;4.10;99.90;;;;;;5035656;28;20507;-61
2021/12/23 09:50:01;;;;;;;29.20;20.33;;;4.30;99.90;;;;;;5036925;28;20774;-61
2021/12/23 09:52:31;;;;;;;26.60;19.97;;;4.20;99.90;;;;;;5036714;28;20398;-61
2021/12/23 09:55:04;;;;;;;26.80;18.00;;;4.30;99.90;;;;;;5037102;28;20455;-61
2021/12/23 09:57:30;;;;;;;25.30;17.17;;;4.40;99.90;;;;;;5036800;28;20478;-61
2021/12/23 09:59:55;;;;;;;26.37;15.97;;;4.40;99.90;;;;;;5036476;28;20768;-61
2021/12/23 10:02:22;;;;;;;19.17;14.97;;;4.60;99.90;;;;;;5036758;28;20166;-58
2021/12/23 10:04:47;;;;;;;18.90;14.37;;;4.60;99.90;;;;;;5036436;28;20772;-61
2021/12/23 10:07:13;;;;;;;19.00;14.23;;;4.70;99.90;;;;;;5036362;28;20390;-60
2021/12/23 10:12:59;;;;;;;24.77;15.33;;;4.70;99.90;;;;;;5036677;28;20413;-61
2021/12/23 10:31:48;;;;;;;26.70;19.47;;;5.40;99.90;;;;;;4977090;28;20385;-63
2021/12/23 10:37:22;;;;;;;28.70;18.70;;;5.10;99.90;;;;;;4977182;28;20925;-63
2021/12/23 10:39:53;;;;;;;30.53;20.27;;;5.20;99.90;;;;;;4976647;28;20428;-62
2021/12/23 10:42:27;;;;;;;27.57;20.23;;;5.20;99.90;;;;;;4976650;28;20427;-63
2021/12/23 10:45:13;;;;;;;26.80;20.00;;;5.50;99.90;;;;;;4976879;28;20432;-62
2021/12/23 10:47:50;;;;;;;31.13;19.77;;;5.70;99.90;;;;;;4976582;28;20499;-63
2021/12/23 10:50:29;;;;;;;30.90;22.10;;;5.80;99.90;;;;;;4975481;28;20393;-63
2021/12/23 10:53:55;;;;;;;34.70;21.87;;;5.80;99.90;;;;;;4976985;28;20395;-63
2021/12/23 10:59:05;;;;;;;31.17;22.37;;;5.70;99.90;;;;;;4977145;28;20429;-63
2021/12/23 11:01:31;;;;;;;25.00;20.00;;;6.00;99.90;;;;;;4976298;28;20540;-63
2021/12/23 11:04:01;;;;;;;30.70;19.77;;;6.10;99.90;;;;;;4976158;28;20404;-63
2021/12/23 11:06:34;;;;;;;30.20;19.87;;;6.00;99.90;;;;;;4976058;28;20406;-62
2021/12/23 11:37:00;;;;;;;11.83;9.37;;;7.30;99.90;;;;;;4965984;28;20416;-63
2021/12/23 11:42:35;;;;;;;9.80;8.13;;;7.20;99.90;;;;;;4971443;28;20431;-63
2021/12/23 11:45:01;;;;;;;11.07;8.30;;;7.50;99.90;;;;;;4975794;28;20422;-63
2021/12/23 11:47:28;;;;;;;15.40;8.33;;;7.70;99.90;;;;;;4975939;28;20422;-63
2021/12/23 11:49:54;;;;;;;11.70;7.80;;;8.00;99.90;;;;;;4975931;28;20229;-64
2021/12/23 11:52:19;;;;;;;9.37;8.10;;;7.90;99.90;;;;;;4976003;28;20445;-65
2021/12/23 11:54:47;;;;;;;8.27;7.37;;;7.90;99.90;;;;;;4975691;28;20427;-62
2021/12/23 11:57:16;;;;;;;8.03;6.40;;;8.00;99.90;;;;;;4975581;28;20207;-62
2021/12/23 11:59:45;;;;;;;9.40;7.47;;;8.30;99.90;;;;;;4975640;28;20468;-62
2021/12/23 12:02:20;;;;;;;10.63;7.50;;;8.20;99.90;;;;;;4975504;28;20427;-62
2021/12/23 12:04:47;;;;;;;8.60;7.13;;;8.10;99.90;;;;;;4975626;28;20417;-62
2021/12/23 12:07:15;;;;;;;9.03;6.90;;;8.20;99.90;;;;;;4975448;28;20840;-62
2021/12/23 12:10:21;;;;;;;11.90;6.90;;;8.40;99.90;;;;;;4975386;28;20420;-62
2021/12/23 12:12:57;;;;;;;7.97;6.83;;;8.60;99.90;;;;;;4975870;28;20389;-62
2021/12/23 12:15:38;;;;;;;9.60;7.03;;;8.70;99.90;;;;;;4975496;28;20888;-63
2021/12/23 12:18:06;;;;;;;13.00;8.50;;;9.00;99.90;;;;;;4974974;28;20820;-62
2021/12/23 12:20:36;;;;;;;8.53;6.70;;;9.00;99.90;;;;;;4975433;28;20448;-63
2021/12/23 12:23:10;;;;;;;10.77;7.77;;;9.10;99.90;;;;;;4975142;28;20406;-63
2021/12/23 12:25:42;;;;;;;10.53;7.00;;;8.80;99.90;;;;;;4975453;28;20744;-62
2021/12/23 12:28:08;;;;;;;8.97;7.33;;;8.80;99.90;;;;;;4974981;28;20478;-63
2021/12/23 12:30:41;;;;;;;14.17;8.63;;;8.60;99.90;;;;;;4975110;28;20409;-62
2021/12/23 12:33:23;;;;;;;14.60;7.10;;;8.80;99.90;;;;;;4975021;28;20181;-62
2021/12/23 12:35:50;;;;;;;13.03;9.50;;;8.70;99.90;;;;;;4975272;28;20487;-61
2021/12/23 12:38:22;;;;;;;14.07;9.33;;;9.00;99.90;;;;;;4974750;28;20432;-61
2021/12/23 12:41:01;;;;;;;12.00;8.20;;;9.00;99.90;;;;;;4975057;28;20835;-61
2021/12/23 12:43:41;;;;;;;14.50;10.30;;;9.30;99.90;;;;;;4975203;28;20499;-62
2021/12/23 12:46:07;;;;;;;12.87;8.30;;;9.20;99.90;;;;;;4974611;28;20482;-62
2021/12/23 12:48:56;;;;;;;9.90;7.70;;;9.00;99.90;;;;;;4975050;28;20430;-62
2021/12/23 12:51:26;;;;;;;7.50;6.60;;;8.90;99.90;;;;;;4974649;28;20420;-62
2021/12/23 12:54:05;;;;;;;6.43;5.83;;;8.80;99.90;;;;;;4974888;28;20425;-62
2021/12/23 12:56:36;;;;;;;7.27;6.07;;;8.90;99.90;;;;;;4974877;28;20383;-62
2021/12/23 12:59:07;;;;;;;7.20;5.53;;;8.80;99.90;;;;;;4974612;28;20485;-62
2021/12/23 13:01:37;;;;;;;6.87;5.47;;;8.90;99.90;;;;;;4974522;28;20440;-62
2021/12/23 13:04:05;;;;;;;5.67;5.17;;;8.60;99.90;;;;;;4974509;28;20902;-62
2021/12/23 13:06:39;;;;;;;6.53;4.80;;;8.60;99.90;;;;;;4974741;28;20444;-62
2021/12/23 13:09:11;;;;;;;5.17;4.67;;;8.50;99.90;;;;;;4974610;28;20439;-64
2021/12/23 13:11:42;;;;;;;5.80;5.07;;;8.60;99.90;;;;;;4973429;28;20396;-63
2021/12/23 13:14:13;;;;;;;5.57;4.87;;;8.70;99.90;;;;;;4974203;28;20407;-63
2021/12/23 13:16:59;;;;;;;9.13;5.30;;;8.80;99.90;;;;;;4974706;28;20434;-63
2021/12/23 13:19:34;;;;;;;5.77;5.27;;;9.00;99.90;;;;;;4973936;28;20486;-64
2021/12/23 13:22:04;;;;;;;5.53;4.60;;;9.10;99.90;;;;;;4988943;28;20519;-63
2021/12/23 13:24:31;;;;;;;8.10;4.80;;;8.90;99.90;;;;;;4989095;28;20408;-63
2021/12/23 13:26:59;;;;;;;6.00;5.20;;;9.10;99.90;;;;;;4974286;28;20966;-63
2021/12/23 13:29:30;;;;;;;9.30;6.60;;;9.00;99.90;;;;;;4973931;28;20788;-63
2021/12/23 13:31:58;;;;;;;7.10;5.70;;;9.00;99.90;;;;;;4974880;28;20397;-63
2021/12/23 13:34:26;;;;;;;7.57;5.40;;;9.00;99.90;;;;;;4974290;28;20411;-63
2021/12/23 13:36:58;;;;;;;6.03;5.23;;;8.90;99.90;;;;;;4974110;28;20808;-63
2021/12/23 13:39:31;;;;;;;6.53;5.47;;;8.70;99.90;;;;;;4974021;28;20520;-62
2021/12/23 13:42:03;;;;;;;7.20;5.80;;;8.60;99.90;;;;;;4973951;28;20461;-62
2021/12/23 13:44:32;;;;;;;8.87;6.17;;;8.60;99.90;;;;;;4988924;28;20450;-62
2021/12/23 13:47:11;;;;;;;6.67;5.83;;;8.50;99.90;;;;;;4974304;28;20420;-62